sensor_id;sensor_type;location;lat;lon;timestamp;pressure;altitude;pressure_sealevel;temperature;humidity
42727;BME280;28372;56.832;60.658;2022-12-29T00:00:16;98719.03;;;-7.24;43.36
42727;BME280;28372;56.832;60.658;2022-12-29T00:02:47;98691.06;;;-7.53;44.06
42727;BME280;28372;56.832;60.658;2022-12-29T00:05:18;98719.38;;;-7.44;44.45
42727;BME280;28372;56.832;60.658;2022-12-29T00:07:50;98717.34;;;-7.42;43.45
42727;BME280;28372;56.832;60.658;2022-12-29T00:10:31;98715.97;;;-7.44;44.97
42727;BME280;28372;56.832;60.658;2022-12-29T00:13:05;98710.47;;;-7.43;43.37
42727;BME280;28372;56.832;60.658;2022-12-29T00:15:56;98711.84;;;-7.40;43.10
42727;BME280;28372;56.832;60.658;2022-12-29T00:18:24;98703.97;;;-7.40;42.95
42727;BME280;28372;56.832;60.658;2022-12-29T00:20:56;98690.78;;;-7.28;43.11
42727;BME280;28372;56.832;60.658;2022-12-29T00:23:49;98730.69;;;-7.31;42.61
42727;BME280;28372;56.832;60.658;2022-12-29T00:27:09;98686.97;;;-7.61;44.34
42727;BME280;28372;56.832;60.658;2022-12-29T00:30:11;98705.69;;;-7.58;44.96
42727;BME280;28372;56.832;60.658;2022-12-29T00:33:19;98702.28;;;-7.58;44.39
42727;BME280;28372;56.832;60.658;2022-12-29T00:36:19;98687.91;;;-7.79;43.73
42727;BME280;28372;56.832;60.658;2022-12-29T00:39:16;98710.28;;;-7.77;43.70
42727;BME280;28372;56.832;60.658;2022-12-29T00:42:05;98712.34;;;-7.90;42.87
42727;BME280;28372;56.832;60.658;2022-12-29T00:45:07;98712.22;;;-7.84;43.58
42727;BME280;28372;56.832;60.658;2022-12-29T00:47:50;98717.47;;;-7.96;44.91
42727;BME280;28372;56.832;60.658;2022-12-29T00:50:29;98716.88;;;-8.10;45.68
42727;BME280;28372;56.832;60.658;2022-12-29T00:53:05;98717.56;;;-8.26;45.96
42727;BME280;28372;56.832;60.658;2022-12-29T00:55:42;98719.72;;;-8.23;46.15
42727;BME280;28372;56.832;60.658;2022-12-29T00:58:14;98705.22;;;-8.26;46.46
42727;BME280;28372;56.832;60.658;2022-12-29T01:00:52;98713.09;;;-8.14;45.80
42727;BME280;28372;56.832;60.658;2022-12-29T01:03:20;98707.28;;;-8.16;45.71
42727;BME280;28372;56.832;60.658;2022-12-29T01:05:50;98709.47;;;-8.13;45.74
42727;BME280;28372;56.832;60.658;2022-12-29T01:08:21;98715.28;;;-8.11;46.04
42727;BME280;28372;56.832;60.658;2022-12-29T01:11:10;98712.09;;;-8.13;46.63
42727;BME280;28372;56.832;60.658;2022-12-29T01:13:57;98708.44;;;-8.12;46.87
42727;BME280;28372;56.832;60.658;2022-12-29T01:16:32;98718.13;;;-8.24;46.64
42727;BME280;28372;56.832;60.658;2022-12-29T01:19:10;98715.34;;;-8.41;47.43
42727;BME280;28372;56.832;60.658;2022-12-29T01:21:40;98708.19;;;-8.46;46.82
42727;BME280;28372;56.832;60.658;2022-12-29T01:24:08;98705.75;;;-8.59;46.95
42727;BME280;28372;56.832;60.658;2022-12-29T01:26:36;98718.84;;;-8.71;47.34
42727;BME280;28372;56.832;60.658;2022-12-29T01:29:04;98718.44;;;-8.86;48.55
42727;BME280;28372;56.832;60.658;2022-12-29T01:31:35;98712.59;;;-8.88;48.77
42727;BME280;28372;56.832;60.658;2022-12-29T01:34:05;98719.53;;;-8.94;49.13
42727;BME280;28372;56.832;60.658;2022-12-29T01:36:33;98712.91;;;-8.97;49.43
42727;BME280;28372;56.832;60.658;2022-12-29T01:39:02;98711.09;;;-8.96;49.72
42727;BME280;28372;56.832;60.658;2022-12-29T01:41:35;98715.00;;;-8.87;50.74
42727;BME280;28372;56.832;60.658;2022-12-29T01:44:46;98706.47;;;-8.82;51.54
42727;BME280;28372;56.832;60.658;2022-12-29T01:49:58;98715.44;;;-8.90;52.15
42727;BME280;28372;56.832;60.658;2022-12-29T01:52:32;98713.84;;;-8.91;51.99
42727;BME280;28372;56.832;60.658;2022-12-29T01:55:02;98715.00;;;-8.87;51.88
42727;BME280;28372;56.832;60.658;2022-12-29T01:57:34;98713.91;;;-8.79;51.52
42727;BME280;28372;56.832;60.658;2022-12-29T02:00:10;98713.22;;;-8.74;51.03
42727;BME280;28372;56.832;60.658;2022-12-29T02:02:53;98704.34;;;-8.73;50.45
42727;BME280;28372;56.832;60.658;2022-12-29T02:05:33;98710.47;;;-8.80;50.19
42727;BME280;28372;56.832;60.658;2022-12-29T02:08:08;98722.28;;;-8.89;50.54
42727;BME280;28372;56.832;60.658;2022-12-29T02:10:39;98719.44;;;-8.87;50.01
42727;BME280;28372;56.832;60.658;2022-12-29T02:13:08;98713.59;;;-8.89;50.05
42727;BME280;28372;56.832;60.658;2022-12-29T02:16:30;98701.22;;;-9.13;51.32
42727;BME280;28372;56.832;60.658;2022-12-29T02:20:08;98716.19;;;-9.38;52.42
42727;BME280;28372;56.832;60.658;2022-12-29T02:25:27;98688.84;;;-9.61;54.06
42727;BME280;28372;56.832;60.658;2022-12-29T02:34:07;98677.25;;;-9.90;56.26
42727;BME280;28372;56.832;60.658;2022-12-29T02:36:40;98696.63;;;-9.91;56.29
42727;BME280;28372;56.832;60.658;2022-12-29T02:39:21;98704.81;;;-9.88;56.90
42727;BME280;28372;56.832;60.658;2022-12-29T02:44:55;98702.34;;;-10.01;57.65
42727;BME280;28372;56.832;60.658;2022-12-29T02:47:35;98702.38;;;-10.08;57.22
42727;BME280;28372;56.832;60.658;2022-12-29T02:50:13;98710.28;;;-10.14;57.08
42727;BME280;28372;56.832;60.658;2022-12-29T02:53:11;98709.06;;;-10.12;57.07
42727;BME280;28372;56.832;60.658;2022-12-29T02:55:48;98706.03;;;-10.34;56.96
42727;BME280;28372;56.832;60.658;2022-12-29T02:58:21;98713.41;;;-10.31;56.27
42727;BME280;28372;56.832;60.658;2022-12-29T03:13:23;98709.72;;;-10.17;56.03
42727;BME280;28372;56.832;60.658;2022-12-29T03:19:25;98708.38;;;-10.26;57.60
42727;BME280;28372;56.832;60.658;2022-12-29T03:21:57;98708.88;;;-10.36;58.00
42727;BME280;28372;56.832;60.658;2022-12-29T03:24:58;98664.41;;;-10.61;57.98
42727;BME280;28372;56.832;60.658;2022-12-29T03:27:32;98701.03;;;-10.36;57.99
42727;BME280;28372;56.832;60.658;2022-12-29T03:30:04;98693.06;;;-10.47;57.66
42727;BME280;28372;56.832;60.658;2022-12-29T03:32:36;98704.41;;;-10.60;57.16
42727;BME280;28372;56.832;60.658;2022-12-29T03:35:08;98703.09;;;-10.76;57.69
42727;BME280;28372;56.832;60.658;2022-12-29T03:37:42;98692.69;;;-10.83;58.10
42727;BME280;28372;56.832;60.658;2022-12-29T03:40:12;98693.09;;;-11.25;59.50
42727;BME280;28372;56.832;60.658;2022-12-29T03:42:41;98696.16;;;-11.34;60.12
42727;BME280;28372;56.832;60.658;2022-12-29T03:45:09;98689.16;;;-11.47;61.02
42727;BME280;28372;56.832;60.658;2022-12-29T03:47:40;98692.03;;;-11.62;61.02
42727;BME280;28372;56.832;60.658;2022-12-29T03:50:11;98690.63;;;-11.72;62.18
42727;BME280;28372;56.832;60.658;2022-12-29T03:52:41;98685.66;;;-11.86;62.24
42727;BME280;28372;56.832;60.658;2022-12-29T03:55:09;98692.25;;;-11.84;63.37
42727;BME280;28372;56.832;60.658;2022-12-29T03:57:38;98695.47;;;-11.89;63.54
42727;BME280;28372;56.832;60.658;2022-12-29T04:00:11;98694.28;;;-11.93;63.09
42727;BME280;28372;56.832;60.658;2022-12-29T04:02:41;98696.34;;;-11.95;62.63
42727;BME280;28372;56.832;60.658;2022-12-29T04:05:17;98695.91;;;-11.92;62.64
42727;BME280;28372;56.832;60.658;2022-12-29T04:07:45;98687.31;;;-11.99;61.96
42727;BME280;28372;56.832;60.658;2022-12-29T04:10:13;98692.53;;;-11.99;62.39
42727;BME280;28372;56.832;60.658;2022-12-29T04:12:44;98687.31;;;-12.06;62.12
42727;BME280;28372;56.832;60.658;2022-12-29T04:15:13;98704.78;;;-12.06;62.92
42727;BME280;28372;56.832;60.658;2022-12-29T04:17:41;98704.38;;;-12.10;62.75
42727;BME280;28372;56.832;60.658;2022-12-29T04:20:09;98699.75;;;-12.14;63.20
42727;BME280;28372;56.832;60.658;2022-12-29T04:23:04;98702.97;;;-12.06;63.48
42727;BME280;28372;56.832;60.658;2022-12-29T04:25:34;98710.97;;;-12.14;63.00
42727;BME280;28372;56.832;60.658;2022-12-29T04:28:02;98709.16;;;-12.13;63.47
42727;BME280;28372;56.832;60.658;2022-12-29T04:30:45;98724.22;;;-12.22;64.00
42727;BME280;28372;56.832;60.658;2022-12-29T04:33:20;98715.00;;;-12.31;64.60
42727;BME280;28372;56.832;60.658;2022-12-29T04:35:48;98711.59;;;-12.32;65.15
42727;BME280;28372;56.832;60.658;2022-12-29T04:38:16;98716.41;;;-12.22;65.16
42727;BME280;28372;56.832;60.658;2022-12-29T04:40:46;98715.19;;;-12.26;65.16
42727;BME280;28372;56.832;60.658;2022-12-29T04:43:16;98709.97;;;-12.19;66.08
42727;BME280;28372;56.832;60.658;2022-12-29T04:46:04;98716.81;;;-12.18;65.83
42727;BME280;28372;56.832;60.658;2022-12-29T04:48:40;98711.97;;;-12.15;65.24
42727;BME280;28372;56.832;60.658;2022-12-29T04:51:30;98723.22;;;-12.01;65.12
42727;BME280;28372;56.832;60.658;2022-12-29T04:53:59;98720.03;;;-11.96;64.68
42727;BME280;28372;56.832;60.658;2022-12-29T04:56:30;98722.97;;;-11.93;64.31
42727;BME280;28372;56.832;60.658;2022-12-29T04:58:58;98714.81;;;-11.96;64.54
42727;BME280;28372;56.832;60.658;2022-12-29T05:01:26;98717.41;;;-11.96;64.09
42727;BME280;28372;56.832;60.658;2022-12-29T05:03:54;98713.59;;;-12.00;64.45
42727;BME280;28372;56.832;60.658;2022-12-29T05:06:22;98727.00;;;-11.90;64.63
42727;BME280;28372;56.832;60.658;2022-12-29T05:08:50;98726.78;;;-11.75;64.14
42727;BME280;28372;56.832;60.658;2022-12-29T05:11:17;98725.13;;;-11.63;64.03
42727;BME280;28372;56.832;60.658;2022-12-29T05:13:48;98728.50;;;-11.35;63.64
42727;BME280;28372;56.832;60.658;2022-12-29T05:16:17;98735.06;;;-11.20;62.98
42727;BME280;28372;56.832;60.658;2022-12-29T05:18:44;98729.56;;;-10.98;62.19
42727;BME280;28372;56.832;60.658;2022-12-29T05:21:13;98736.34;;;-10.52;61.77
42727;BME280;28372;56.832;60.658;2022-12-29T05:23:42;98727.53;;;-9.82;62.18
42727;BME280;28372;56.832;60.658;2022-12-29T05:26:10;98732.59;;;-9.06;61.03
42727;BME280;28372;56.832;60.658;2022-12-29T05:29:06;98725.75;;;-8.22;57.40
42727;BME280;28372;56.832;60.658;2022-12-29T05:31:34;98734.47;;;-7.51;54.54
42727;BME280;28372;56.832;60.658;2022-12-29T05:34:04;98742.47;;;-6.93;54.50
42727;BME280;28372;56.832;60.658;2022-12-29T05:36:32;98737.88;;;-6.28;51.27
42727;BME280;28372;56.832;60.658;2022-12-29T05:39:05;98738.47;;;-5.70;49.19
42727;BME280;28372;56.832;60.658;2022-12-29T05:41:36;98741.94;;;-5.08;47.85
42727;BME280;28372;56.832;60.658;2022-12-29T05:44:21;98741.13;;;-4.37;44.92
42727;BME280;28372;56.832;60.658;2022-12-29T05:46:59;98739.50;;;-3.79;43.45
42727;BME280;28372;56.832;60.658;2022-12-29T05:49:52;98744.53;;;-3.34;41.48
42727;BME280;28372;56.832;60.658;2022-12-29T05:52:38;98749.00;;;-2.82;41.23
42727;BME280;28372;56.832;60.658;2022-12-29T05:55:06;98750.19;;;-2.21;39.82
42727;BME280;28372;56.832;60.658;2022-12-29T05:57:36;98747.28;;;-1.68;38.38
42727;BME280;28372;56.832;60.658;2022-12-29T06:00:09;98741.38;;;-1.34;36.68
42727;BME280;28372;56.832;60.658;2022-12-29T06:02:40;98740.00;;;-1.16;34.92
42727;BME280;28372;56.832;60.658;2022-12-29T06:05:09;98739.19;;;-1.11;36.16
42727;BME280;28372;56.832;60.658;2022-12-29T06:07:39;98742.56;;;-0.90;37.14
42727;BME280;28372;56.832;60.658;2022-12-29T06:10:07;98746.09;;;-0.50;36.05
42727;BME280;28372;56.832;60.658;2022-12-29T06:12:45;98743.16;;;-0.09;33.81
42727;BME280;28372;56.832;60.658;2022-12-29T06:15:14;98740.06;;;0.13;34.38
42727;BME280;28372;56.832;60.658;2022-12-29T06:17:44;98739.09;;;0.33;33.26
42727;BME280;28372;56.832;60.658;2022-12-29T06:20:11;98739.47;;;0.51;32.97
42727;BME280;28372;56.832;60.658;2022-12-29T06:22:40;98727.03;;;0.71;32.14
42727;BME280;28372;56.832;60.658;2022-12-29T06:25:08;98736.31;;;0.97;32.01
42727;BME280;28372;56.832;60.658;2022-12-29T06:27:36;98734.53;;;1.12;31.56
42727;BME280;28372;56.832;60.658;2022-12-29T06:30:05;98741.84;;;1.25;31.49
42727;BME280;28372;56.832;60.658;2022-12-29T06:32:32;98730.06;;;1.50;31.05
42727;BME280;28372;56.832;60.658;2022-12-29T06:35:04;98733.41;;;1.75;30.56
42727;BME280;28372;56.832;60.658;2022-12-29T06:37:40;98725.34;;;1.80;29.73
42727;BME280;28372;56.832;60.658;2022-12-29T06:40:08;98724.69;;;1.88;29.79
42727;BME280;28372;56.832;60.658;2022-12-29T06:42:54;98733.00;;;2.20;29.34
42727;BME280;28372;56.832;60.658;2022-12-29T06:45:40;98729.09;;;2.45;28.55
42727;BME280;28372;56.832;60.658;2022-12-29T06:48:08;98737.44;;;2.71;28.48
42727;BME280;28372;56.832;60.658;2022-12-29T06:50:35;98737.22;;;3.09;27.93
42727;BME280;28372;56.832;60.658;2022-12-29T06:53:03;98731.69;;;3.20;28.48
42727;BME280;28372;56.832;60.658;2022-12-29T06:55:31;98740.94;;;3.50;27.20
42727;BME280;28372;56.832;60.658;2022-12-29T06:57:59;98729.16;;;3.51;26.56
42727;BME280;28372;56.832;60.658;2022-12-29T07:00:28;98728.28;;;3.28;27.31
42727;BME280;28372;56.832;60.658;2022-12-29T07:02:56;98728.59;;;3.26;27.40
42727;BME280;28372;56.832;60.658;2022-12-29T07:05:27;98724.88;;;3.00;26.68
42727;BME280;28372;56.832;60.658;2022-12-29T07:07:55;98734.47;;;2.73;27.17
42727;BME280;28372;56.832;60.658;2022-12-29T07:10:22;98732.44;;;2.37;28.02
42727;BME280;28372;56.832;60.658;2022-12-29T07:12:50;98737.56;;;2.00;28.20
42727;BME280;28372;56.832;60.658;2022-12-29T07:15:18;98731.19;;;1.63;28.30
42727;BME280;28372;56.832;60.658;2022-12-29T07:17:45;98731.00;;;0.97;29.26
42727;BME280;28372;56.832;60.658;2022-12-29T07:20:13;98733.50;;;0.35;30.08
42727;BME280;28372;56.832;60.658;2022-12-29T07:22:42;98730.50;;;-0.22;31.36
42727;BME280;28372;56.832;60.658;2022-12-29T07:25:09;98731.06;;;-0.70;32.14
42727;BME280;28372;56.832;60.658;2022-12-29T07:27:38;98726.50;;;-1.30;32.96
42727;BME280;28372;56.832;60.658;2022-12-29T07:30:06;98737.75;;;-1.64;33.54
42727;BME280;28372;56.832;60.658;2022-12-29T07:32:34;98738.28;;;-2.08;34.28
42727;BME280;28372;56.832;60.658;2022-12-29T07:35:01;98723.41;;;-2.40;34.84
42727;BME280;28372;56.832;60.658;2022-12-29T07:37:29;98728.09;;;-2.78;35.40
42727;BME280;28372;56.832;60.658;2022-12-29T07:40:00;98732.59;;;-3.42;36.47
42727;BME280;28372;56.832;60.658;2022-12-29T07:42:30;98732.19;;;-3.99;37.24
42727;BME280;28372;56.832;60.658;2022-12-29T07:44:59;98734.56;;;-4.35;38.38
42727;BME280;28372;56.832;60.658;2022-12-29T07:47:36;98733.44;;;-4.88;39.68
42727;BME280;28372;56.832;60.658;2022-12-29T07:50:04;98741.91;;;-5.30;39.93
42727;BME280;28372;56.832;60.658;2022-12-29T07:52:31;98733.75;;;-5.51;40.43
42727;BME280;28372;56.832;60.658;2022-12-29T07:54:59;98735.91;;;-6.04;41.93
42727;BME280;28372;56.832;60.658;2022-12-29T07:57:27;98730.88;;;-6.23;42.53
42727;BME280;28372;56.832;60.658;2022-12-29T07:59:58;98732.69;;;-6.69;43.34
42727;BME280;28372;56.832;60.658;2022-12-29T08:02:26;98726.63;;;-6.98;44.41
42727;BME280;28372;56.832;60.658;2022-12-29T08:04:54;98728.84;;;-7.31;45.77
42727;BME280;28372;56.832;60.658;2022-12-29T08:07:21;98728.09;;;-7.43;45.90
42727;BME280;28372;56.832;60.658;2022-12-29T08:09:49;98730.03;;;-7.74;47.58
42727;BME280;28372;56.832;60.658;2022-12-29T08:12:16;98735.97;;;-7.79;47.89
42727;BME280;28372;56.832;60.658;2022-12-29T08:14:45;98737.41;;;-8.06;48.68
42727;BME280;28372;56.832;60.658;2022-12-29T08:17:12;98728.84;;;-8.14;49.05
42727;BME280;28372;56.832;60.658;2022-12-29T08:19:40;98732.16;;;-8.18;49.27
42727;BME280;28372;56.832;60.658;2022-12-29T08:22:09;98727.31;;;-8.33;50.02
42727;BME280;28372;56.832;60.658;2022-12-29T08:24:37;98721.84;;;-8.32;50.39
42727;BME280;28372;56.832;60.658;2022-12-29T08:27:04;98723.44;;;-8.43;50.80
42727;BME280;28372;56.832;60.658;2022-12-29T08:29:43;98732.72;;;-8.70;52.79
42727;BME280;28372;56.832;60.658;2022-12-29T08:32:11;98719.84;;;-8.72;52.80
42727;BME280;28372;56.832;60.658;2022-12-29T08:34:39;98732.03;;;-8.77;53.66
42727;BME280;28372;56.832;60.658;2022-12-29T08:37:06;98717.03;;;-8.89;54.24
42727;BME280;28372;56.832;60.658;2022-12-29T08:39:34;98719.31;;;-8.92;55.02
42727;BME280;28372;56.832;60.658;2022-12-29T08:42:02;98723.63;;;-9.17;55.98
42727;BME280;28372;56.832;60.658;2022-12-29T08:44:29;98725.16;;;-9.27;56.97
42727;BME280;28372;56.832;60.658;2022-12-29T08:46:56;98728.78;;;-9.28;57.89
42727;BME280;28372;56.832;60.658;2022-12-29T08:49:24;98734.03;;;-9.28;58.28
42727;BME280;28372;56.832;60.658;2022-12-29T08:51:52;98734.63;;;-9.26;58.62
42727;BME280;28372;56.832;60.658;2022-12-29T08:54:19;98736.09;;;-9.31;59.51
42727;BME280;28372;56.832;60.658;2022-12-29T08:56:47;98735.13;;;-9.36;59.50
42727;BME280;28372;56.832;60.658;2022-12-29T08:59:15;98732.34;;;-9.41;60.54
42727;BME280;28372;56.832;60.658;2022-12-29T09:01:46;98736.09;;;-9.49;60.79
42727;BME280;28372;56.832;60.658;2022-12-29T09:04:13;98734.53;;;-9.38;61.05
42727;BME280;28372;56.832;60.658;2022-12-29T09:06:44;98742.94;;;-9.48;61.93
42727;BME280;28372;56.832;60.658;2022-12-29T09:09:12;98738.25;;;-9.46;62.41
42727;BME280;28372;56.832;60.658;2022-12-29T09:11:41;98744.28;;;-9.45;62.85
42727;BME280;28372;56.832;60.658;2022-12-29T09:14:08;98736.88;;;-9.49;63.09
42727;BME280;28372;56.832;60.658;2022-12-29T09:16:36;98743.28;;;-9.44;63.21
42727;BME280;28372;56.832;60.658;2022-12-29T09:19:04;98742.38;;;-9.57;64.37
42727;BME280;28372;56.832;60.658;2022-12-29T09:21:32;98739.78;;;-9.57;64.62
42727;BME280;28372;56.832;60.658;2022-12-29T09:24:00;98738.19;;;-9.58;64.97
42727;BME280;28372;56.832;60.658;2022-12-29T09:26:27;98740.81;;;-9.58;65.22
42727;BME280;28372;56.832;60.658;2022-12-29T09:28:55;98741.66;;;-9.64;65.95
42727;BME280;28372;56.832;60.658;2022-12-29T09:31:22;98723.16;;;-9.69;65.98
42727;BME280;28372;56.832;60.658;2022-12-29T09:33:50;98737.03;;;-9.62;65.82
42727;BME280;28372;56.832;60.658;2022-12-29T09:36:17;98732.63;;;-9.50;66.89
42727;BME280;28372;56.832;60.658;2022-12-29T09:38:45;98738.75;;;-9.56;66.39
42727;BME280;28372;56.832;60.658;2022-12-29T09:41:22;98745.09;;;-9.45;66.61
42727;BME280;28372;56.832;60.658;2022-12-29T09:44:31;98742.72;;;-9.47;67.50
42727;BME280;28372;56.832;60.658;2022-12-29T09:47:03;98745.28;;;-9.65;67.39
42727;BME280;28372;56.832;60.658;2022-12-29T09:49:40;98731.84;;;-9.50;67.40
42727;BME280;28372;56.832;60.658;2022-12-29T09:52:37;98741.59;;;-9.57;67.80
42727;BME280;28372;56.832;60.658;2022-12-29T09:55:05;98734.25;;;-9.67;68.43
42727;BME280;28372;56.832;60.658;2022-12-29T09:57:47;98740.69;;;-9.70;69.38
42727;BME280;28372;56.832;60.658;2022-12-29T10:00:37;98730.22;;;-9.70;69.87
42727;BME280;28372;56.832;60.658;2022-12-29T10:03:13;98725.19;;;-9.90;71.51
42727;BME280;28372;56.832;60.658;2022-12-29T10:08:49;98721.97;;;-9.92;72.59
42727;BME280;28372;56.832;60.658;2022-12-29T10:14:29;98718.81;;;-10.01;73.69
42727;BME280;28372;56.832;60.658;2022-12-29T10:23:17;98712.41;;;-10.05;75.40
42727;BME280;28372;56.832;60.658;2022-12-29T10:25:41;98715.78;;;-9.98;76.57
42727;BME280;28372;56.832;60.658;2022-12-29T10:28:46;98708.50;;;-10.14;76.58
42727;BME280;28372;56.832;60.658;2022-12-29T10:31:20;98717.97;;;-10.20;77.44
42727;BME280;28372;56.832;60.658;2022-12-29T10:33:53;98708.75;;;-10.22;78.63
42727;BME280;28372;56.832;60.658;2022-12-29T10:36:40;98718.13;;;-10.14;79.32
42727;BME280;28372;56.832;60.658;2022-12-29T10:39:14;98720.88;;;-10.28;79.40
42727;BME280;28372;56.832;60.658;2022-12-29T10:42:22;98716.81;;;-10.24;80.86
42727;BME280;28372;56.832;60.658;2022-12-29T10:44:54;98724.50;;;-10.29;79.96
42727;BME280;28372;56.832;60.658;2022-12-29T10:47:25;98728.78;;;-10.35;80.30
42727;BME280;28372;56.832;60.658;2022-12-29T10:49:55;98723.69;;;-10.55;81.13
42727;BME280;28372;56.832;60.658;2022-12-29T10:52:23;98730.69;;;-10.48;83.25
42727;BME280;28372;56.832;60.658;2022-12-29T10:57:37;98722.59;;;-10.40;83.46
42727;BME280;28372;56.832;60.658;2022-12-29T11:00:19;98727.28;;;-10.49;83.48
42727;BME280;28372;56.832;60.658;2022-12-29T11:03:15;98719.22;;;-10.47;84.01
42727;BME280;28372;56.832;60.658;2022-12-29T11:09:08;98724.00;;;-10.76;86.60
42727;BME280;28372;56.832;60.658;2022-12-29T11:11:38;98704.78;;;-10.89;86.60
42727;BME280;28372;56.832;60.658;2022-12-29T11:14:16;98717.59;;;-10.80;87.95
42727;BME280;28372;56.832;60.658;2022-12-29T11:16:59;98709.97;;;-10.82;89.53
42727;BME280;28372;56.832;60.658;2022-12-29T11:19:29;98712.00;;;-10.84;88.79
42727;BME280;28372;56.832;60.658;2022-12-29T11:22:14;98722.50;;;-10.91;89.54
42727;BME280;28372;56.832;60.658;2022-12-29T11:24:46;98729.38;;;-11.03;89.84
42727;BME280;28372;56.832;60.658;2022-12-29T11:27:23;98725.75;;;-11.02;89.63
42727;BME280;28372;56.832;60.658;2022-12-29T11:29:52;98728.94;;;-10.93;90.20
42727;BME280;28372;56.832;60.658;2022-12-29T11:32:26;98727.31;;;-10.94;89.65
42727;BME280;28372;56.832;60.658;2022-12-29T11:34:58;98734.13;;;-10.87;89.41
42727;BME280;28372;56.832;60.658;2022-12-29T11:37:32;98720.09;;;-10.99;88.50
42727;BME280;28372;56.832;60.658;2022-12-29T11:40:18;98725.34;;;-10.99;89.18
42727;BME280;28372;56.832;60.658;2022-12-29T11:43:00;98720.56;;;-11.09;89.68
42727;BME280;28372;56.832;60.658;2022-12-29T11:45:33;98726.78;;;-11.10;89.68
42727;BME280;28372;56.832;60.658;2022-12-29T11:48:15;98715.47;;;-10.97;90.25
42727;BME280;28372;56.832;60.658;2022-12-29T11:50:51;98725.69;;;-10.95;89.91
42727;BME280;28372;56.832;60.658;2022-12-29T11:53:23;98726.56;;;-11.08;90.24
42727;BME280;28372;56.832;60.658;2022-12-29T11:56:14;98727.34;;;-11.01;91.12
42727;BME280;28372;56.832;60.658;2022-12-29T11:58:43;98736.22;;;-11.02;90.39
42727;BME280;28372;56.832;60.658;2022-12-29T12:04:03;98732.97;;;-10.97;90.85
42727;BME280;28372;56.832;60.658;2022-12-29T12:06:38;98735.19;;;-11.01;90.57
42727;BME280;28372;56.832;60.658;2022-12-29T12:09:31;98735.56;;;-10.91;91.65
42727;BME280;28372;56.832;60.658;2022-12-29T12:12:01;98737.75;;;-10.94;91.51
42727;BME280;28372;56.832;60.658;2022-12-29T12:14:35;98736.75;;;-10.87;92.59
42727;BME280;28372;56.832;60.658;2022-12-29T12:17:32;98737.16;;;-10.90;93.19
42727;BME280;28372;56.832;60.658;2022-12-29T12:20:36;98737.09;;;-10.83;93.35
42727;BME280;28372;56.832;60.658;2022-12-29T12:26:20;98734.84;;;-10.73;93.11
42727;BME280;28372;56.832;60.658;2022-12-29T12:28:54;98738.28;;;-10.79;92.64
42727;BME280;28372;56.832;60.658;2022-12-29T12:34:28;98724.81;;;-10.76;90.59
42727;BME280;28372;56.832;60.658;2022-12-29T12:51:42;98732.44;;;-11.20;88.02
42727;BME280;28372;56.832;60.658;2022-12-29T13:05:16;98727.28;;;-11.40;83.94
42727;BME280;28372;56.832;60.658;2022-12-29T13:10:54;98718.91;;;-11.55;83.26
42727;BME280;28372;56.832;60.658;2022-12-29T13:25:43;98729.56;;;-11.63;81.18
42727;BME280;28372;56.832;60.658;2022-12-29T13:28:29;98729.19;;;-11.74;81.17
42727;BME280;28372;56.832;60.658;2022-12-29T13:31:33;98732.38;;;-11.78;80.69
42727;BME280;28372;56.832;60.658;2022-12-29T13:37:02;98734.84;;;-11.97;79.63
42727;BME280;28372;56.832;60.658;2022-12-29T13:39:38;98724.63;;;-12.05;80.33
42727;BME280;28372;56.832;60.658;2022-12-29T13:42:07;98684.13;;;-12.48;80.03
42727;BME280;28372;56.832;60.658;2022-12-29T13:44:42;98734.47;;;-12.34;80.71
42727;BME280;28372;56.832;60.658;2022-12-29T13:47:27;98734.44;;;-12.27;80.90
42727;BME280;28372;56.832;60.658;2022-12-29T13:49:58;98726.84;;;-12.35;80.63
42727;BME280;28372;56.832;60.658;2022-12-29T13:52:43;98742.88;;;-12.45;80.19
42727;BME280;28372;56.832;60.658;2022-12-29T14:01:21;98738.41;;;-12.65;80.16
42727;BME280;28372;56.832;60.658;2022-12-29T14:03:52;98733.78;;;-12.76;79.28
42727;BME280;28372;56.832;60.658;2022-12-29T14:06:24;98745.59;;;-12.73;78.84
42727;BME280;28372;56.832;60.658;2022-12-29T14:08:55;98742.41;;;-12.76;78.83
42727;BME280;28372;56.832;60.658;2022-12-29T14:11:31;98749.41;;;-12.76;78.81
42727;BME280;28372;56.832;60.658;2022-12-29T14:14:27;98741.59;;;-12.83;78.58
42727;BME280;28372;56.832;60.658;2022-12-29T14:17:11;98742.78;;;-12.85;78.89
42727;BME280;28372;56.832;60.658;2022-12-29T14:19:43;98731.44;;;-13.19;78.31
42727;BME280;28372;56.832;60.658;2022-12-29T14:22:23;98752.69;;;-13.09;78.66
42727;BME280;28372;56.832;60.658;2022-12-29T14:24:59;98746.59;;;-13.30;78.70
42727;BME280;28372;56.832;60.658;2022-12-29T14:30:06;98763.41;;;-13.32;78.39
42727;BME280;28372;56.832;60.658;2022-12-29T14:33:03;98766.03;;;-13.26;78.56
42727;BME280;28372;56.832;60.658;2022-12-29T14:35:45;98719.22;;;-13.67;78.25
42727;BME280;28372;56.832;60.658;2022-12-29T14:38:19;98763.41;;;-13.39;78.44
42727;BME280;28372;56.832;60.658;2022-12-29T14:40:49;98766.13;;;-13.54;77.53
42727;BME280;28372;56.832;60.658;2022-12-29T14:43:26;98761.50;;;-13.58;78.86
42727;BME280;28372;56.832;60.658;2022-12-29T14:46:00;98757.81;;;-13.71;78.71
42727;BME280;28372;56.832;60.658;2022-12-29T14:48:33;98761.72;;;-13.82;78.69
42727;BME280;28372;56.832;60.658;2022-12-29T14:51:27;98756.53;;;-13.82;78.35
42727;BME280;28372;56.832;60.658;2022-12-29T14:53:56;98762.50;;;-13.88;78.64
42727;BME280;28372;56.832;60.658;2022-12-29T14:56:27;98759.97;;;-13.81;78.48
42727;BME280;28372;56.832;60.658;2022-12-29T14:59:01;98757.34;;;-13.81;77.31
42727;BME280;28372;56.832;60.658;2022-12-29T15:01:46;98763.16;;;-13.79;76.60
42727;BME280;28372;56.832;60.658;2022-12-29T15:04:23;98758.09;;;-13.87;76.79
42727;BME280;28372;56.832;60.658;2022-12-29T15:06:53;98753.94;;;-14.10;76.45
42727;BME280;28372;56.832;60.658;2022-12-29T15:09:30;98757.16;;;-14.30;77.76
42727;BME280;28372;56.832;60.658;2022-12-29T15:12:21;98762.69;;;-14.39;78.35
42727;BME280;28372;56.832;60.658;2022-12-29T15:14:59;98760.66;;;-14.44;78.91